Time;durP1;ratioP1;P1;durP2;ratioP2;P2;SDS_P1;SDS_P2;PMS_P1;PMS_P2;Temp;Humidity;BMP_temperature;BMP_pressure;BME280_temperature;BME280_humidity;BME280_pressure;Samples;Min_cycle;Max_cycle;Signal;HPM_P1;HPM_P2
2021/11/27 00:00:45;;;;;;;5.30;2.57;;;;;;;3.72;85.27;93794.63;5011901;28;20202;-84
2021/11/27 00:03:13;;;;;;;2.60;1.90;;;;;;;3.74;85.39;93799.63;5013542;28;20214;-85
2021/11/27 00:05:42;;;;;;;3.37;2.30;;;;;;;3.94;84.88;93796.09;5014281;28;20229;-84
2021/11/27 00:08:10;;;;;;;2.27;1.23;;;;;;;3.89;84.99;93790.66;5015149;28;20238;-84
2021/11/27 00:10:38;;;;;;;1.10;1.03;;;;;;;3.62;86.11;93790.00;5015323;28;20207;-84
2021/11/27 00:13:06;;;;;;;2.40;1.90;;;;;;;3.68;86.00;93793.41;5015441;28;20206;-84
2021/11/27 00:15:34;;;;;;;2.30;2.00;;;;;;;3.78;85.61;93790.41;5015662;28;20199;-86
2021/11/27 00:18:01;;;;;;;3.03;1.73;;;;;;;3.84;85.26;93785.22;5016655;28;20234;-84
2021/11/27 00:20:33;;;;;;;2.47;1.87;;;;;;;3.72;85.98;93791.22;5014253;28;20198;-85
2021/11/27 00:23:01;;;;;;;1.83;1.73;;;;;;;3.89;85.58;93790.66;5013089;28;20209;-83
2021/11/27 00:25:28;;;;;;;1.83;1.67;;;;;;;3.60;85.37;93786.75;5014096;28;20229;-83
2021/11/27 00:27:55;;;;;;;3.17;2.10;;;;;;;3.59;85.63;93791.19;5013906;28;20229;-84
2021/11/27 00:30:26;;;;;;;2.10;1.97;;;;;;;3.78;85.14;93780.00;5012276;28;20206;-86
2021/11/27 00:32:54;;;;;;;3.87;1.97;;;;;;;3.77;85.07;93781.03;5011775;28;20217;-85
2021/11/27 00:35:20;;;;;;;3.07;2.10;;;;;;;3.65;84.62;93777.34;5011450;28;20204;-85
2021/11/27 00:37:47;;;;;;;2.17;1.60;;;;;;;3.81;84.13;93769.22;5011358;28;20244;-82
2021/11/27 00:40:16;;;;;;;2.17;1.93;;;;;;;4.09;83.95;93783.72;5011321;28;20211;-86
2021/11/27 00:42:43;;;;;;;4.13;1.53;;;;;;;3.75;83.88;93776.00;5012304;28;20571;-86
2021/11/27 00:45:12;;;;;;;2.63;1.87;;;;;;;3.83;84.25;93775.00;5013781;28;20212;-85
2021/11/27 00:47:39;;;;;;;2.43;1.20;;;;;;;3.75;84.38;93776.00;5010934;28;20219;-85
2021/11/27 00:50:07;;;;;;;4.20;2.33;;;;;;;3.96;84.02;93768.06;5013912;28;20551;-84
2021/11/27 00:52:34;;;;;;;4.23;1.80;;;;;;;3.84;83.43;93759.19;5012847;28;20203;-86
2021/11/27 00:55:01;;;;;;;2.43;1.93;;;;;;;4.03;83.07;93768.84;5012557;28;20748;-86
2021/11/27 00:57:28;;;;;;;1.27;1.00;;;;;;;4.00;83.65;93753.63;5011363;28;20590;-86
2021/11/27 00:59:55;;;;;;;3.53;2.07;;;;;;;3.80;83.39;93752.78;5012173;28;20215;-84
2021/11/27 01:02:22;;;;;;;2.37;2.17;;;;;;;3.84;83.44;93750.59;5012194;28;20204;-85
2021/11/27 01:04:48;;;;;;;1.10;1.00;;;;;;;3.74;83.86;93747.53;5012739;28;20214;-84
2021/11/27 01:07:15;;;;;;;3.57;2.40;;;;;;;3.70;83.71;93741.94;5011894;28;20230;-85
2021/11/27 01:09:42;;;;;;;1.73;1.03;;;;;;;3.51;84.12;93744.47;5013335;28;20207;-85
2021/11/27 01:12:09;;;;;;;2.50;1.47;;;;;;;3.78;83.92;93738.34;5009743;28;20208;-84
2021/11/27 01:14:37;;;;;;;2.53;1.47;;;;;;;4.11;83.46;93727.00;5011194;28;20298;-86
2021/11/27 01:17:07;;;;;;;5.67;2.73;;;;;;;3.84;83.75;93729.75;5010564;28;20219;-84
2021/11/27 01:19:36;;;;;;;2.63;1.77;;;;;;;3.97;83.44;93738.41;5010941;28;20231;-84
2021/11/27 01:22:06;;;;;;;4.93;2.17;;;;;;;4.03;83.44;93727.19;5010386;28;20212;-84
2021/11/27 01:24:33;;;;;;;1.77;1.67;;;;;;;3.84;83.08;93727.16;5010860;28;20214;-85
2021/11/27 01:27:00;;;;;;;5.53;2.37;;;;;;;3.84;83.30;93730.53;5011978;28;20241;-85
2021/11/27 01:29:28;;;;;;;1.40;1.23;;;;;;;3.79;83.57;93719.94;5010696;28;20207;-84
2021/11/27 01:31:56;;;;;;;1.57;1.47;;;;;;;4.04;82.71;93715.75;5011558;28;20218;-86
2021/11/27 01:34:24;;;;;;;4.27;1.40;;;;;;;3.93;83.03;93715.53;5008304;28;20200;-86
2021/11/27 01:36:50;;;;;;;5.40;1.80;;;;;;;3.64;82.98;93721.91;5009284;28;20765;-85
2021/11/27 01:39:17;;;;;;;3.37;2.20;;;;;;;3.78;82.44;93710.50;5007847;28;20236;-85
2021/11/27 01:41:43;;;;;;;1.30;1.20;;;;;;;3.75;81.83;93710.88;5008392;28;20665;-86
2021/11/27 01:44:11;;;;;;;7.73;2.50;;;;;;;3.93;81.96;93711.13;5008430;28;20210;-85
2021/11/27 01:46:39;;;;;;;2.83;1.43;;;;;;;3.80;81.52;93708.50;5010412;28;20234;-85
2021/11/27 01:49:09;;;;;;;1.40;1.17;;;;;;;4.05;81.19;93699.13;5011402;28;20230;-86
2021/11/27 01:51:37;;;;;;;1.90;1.70;;;;;;;3.94;81.74;93702.31;5012003;28;20213;-84
2021/11/27 01:54:07;;;;;;;2.27;1.53;;;;;;;4.03;81.66;93700.34;5011340;28;20209;-84
2021/11/27 01:56:37;;;;;;;2.53;1.57;;;;;;;3.85;81.81;93698.28;5009625;28;20253;-85
2021/11/27 01:59:05;;;;;;;2.00;1.23;;;;;;;3.81;81.70;93696.31;5008010;28;20231;-84
2021/11/27 02:01:34;;;;;;;3.37;1.63;;;;;;;3.94;81.55;93701.53;5010964;28;20199;-85
2021/11/27 02:04:02;;;;;;;0.60;0.60;;;;;;;3.86;81.18;93697.31;5009600;28;20481;-85
2021/11/27 02:06:30;;;;;;;1.27;1.17;;;;;;;4.02;81.14;93699.53;5010291;28;20227;-85
2021/11/27 02:08:58;;;;;;;1.43;1.33;;;;;;;4.08;80.41;93703.94;5011285;28;20225;-85
2021/11/27 02:11:27;;;;;;;1.83;1.50;;;;;;;3.92;80.70;93695.69;5011046;28;20685;-84
2021/11/27 02:13:54;;;;;;;2.97;1.37;;;;;;;3.74;80.76;93696.28;5010399;28;20220;-84
2021/11/27 02:16:21;;;;;;;1.57;1.03;;;;;;;3.75;80.37;93684.84;5010304;28;20689;-84
2021/11/27 02:18:48;;;;;;;1.63;0.90;;;;;;;3.70;80.87;93689.88;5010329;28;20228;-84
2021/11/27 02:21:19;;;;;;;0.80;0.60;;;;;;;3.87;80.50;93685.06;5013287;28;20574;-84
2021/11/27 02:23:47;;;;;;;1.33;1.10;;;;;;;3.60;80.64;93687.84;5013387;28;20195;-85
2021/11/27 02:26:19;;;;;;;0.70;0.70;;;;;;;3.92;80.14;93683.50;5012008;28;20241;-84
2021/11/27 02:28:48;;;;;;;2.20;1.37;;;;;;;3.82;80.41;93690.88;5012390;28;20597;-84
2021/11/27 02:31:15;;;;;;;1.57;1.17;;;;;;;3.51;80.79;93689.81;5012340;28;20205;-84
2021/11/27 02:33:41;;;;;;;0.77;0.70;;;;;;;3.39;80.92;93686.19;5010601;28;20210;-85
2021/11/27 02:36:08;;;;;;;1.17;1.07;;;;;;;3.40;80.84;93681.75;5012556;28;20231;-85
2021/11/27 02:38:36;;;;;;;1.40;0.97;;;;;;;3.65;81.15;93675.81;5010837;28;20221;-83
2021/11/27 02:41:03;;;;;;;1.57;1.07;;;;;;;3.43;80.73;93678.78;5010897;28;20586;-84
2021/11/27 02:43:30;;;;;;;3.03;1.57;;;;;;;3.38;80.89;93671.56;5011278;28;20552;-83
2021/11/27 02:45:56;;;;;;;1.17;1.07;;;;;;;3.37;81.21;93676.97;5012086;28;20214;-86
2021/11/27 02:48:23;;;;;;;3.50;1.57;;;;;;;3.38;80.94;93673.38;5011993;28;20233;-86
2021/11/27 02:50:50;;;;;;;1.67;1.10;;;;;;;3.21;81.32;93677.31;5012341;28;20217;-85
2021/11/27 02:53:17;;;;;;;2.57;1.37;;;;;;;3.45;81.00;93667.19;5012874;28;20756;-86
2021/11/27 02:55:45;;;;;;;1.10;1.00;;;;;;;3.58;80.92;93676.81;5012350;28;20221;-84
2021/11/27 02:58:11;;;;;;;1.63;0.70;;;;;;;3.33;80.12;93660.13;5010672;28;20230;-84
2021/11/27 03:00:39;;;;;;;0.40;0.40;;;;;;;3.26;80.40;93659.28;5011447;28;20205;-84
2021/11/27 03:03:05;;;;;;;0.87;0.70;;;;;;;3.28;79.98;93652.13;5012025;28;20210;-84
2021/11/27 03:05:32;;;;;;;2.23;1.40;;;;;;;3.36;79.99;93651.94;5012511;28;20203;-84
2021/11/27 03:07:59;;;;;;;0.63;0.63;;;;;;;3.58;79.50;93654.19;5012050;28;20226;-85
2021/11/27 03:10:26;;;;;;;0.87;0.83;;;;;;;3.52;79.25;93659.38;5011860;28;20209;-84
2021/11/27 03:12:54;;;;;;;2.17;0.83;;;;;;;3.67;79.35;93653.81;5011771;28;20210;-84
2021/11/27 03:15:21;;;;;;;1.63;1.20;;;;;;;3.64;79.22;93654.22;5012338;28;20203;-85
2021/11/27 03:17:48;;;;;;;6.13;1.33;;;;;;;3.65;79.01;93655.81;5011930;28;20738;-84
2021/11/27 03:20:19;;;;;;;1.33;1.23;;;;;;;3.61;79.05;93653.78;5012376;28;20215;-84
2021/11/27 03:22:46;;;;;;;1.60;1.43;;;;;;;3.53;79.14;93653.19;5010949;28;20197;-83
2021/11/27 03:25:13;;;;;;;0.80;0.80;;;;;;;3.44;79.45;93651.78;5010532;28;20607;-83
2021/11/27 03:27:41;;;;;;;1.10;1.00;;;;;;;3.23;80.17;93644.91;5009638;28;20235;-83
2021/11/27 03:30:13;;;;;;;1.23;0.93;;;;;;;3.57;79.90;93657.00;5014940;28;20210;-85
2021/11/27 03:32:40;;;;;;;0.90;0.87;;;;;;;3.29;80.12;93659.72;5010176;28;20732;-83
2021/11/27 03:35:07;;;;;;;0.73;0.70;;;;;;;3.35;80.81;93652.94;5010322;28;20207;-84
2021/11/27 03:37:34;;;;;;;0.70;0.70;;;;;;;3.30;80.72;93650.13;5009981;28;20232;-84
2021/11/27 03:40:01;;;;;;;1.60;1.47;;;;;;;3.34;79.87;93651.34;5009661;28;20206;-86
2021/11/27 03:42:27;;;;;;;1.17;1.17;;;;;;;3.49;79.45;93665.78;5009790;28;20293;-86
2021/11/27 03:44:54;;;;;;;0.70;0.70;;;;;;;3.39;79.99;93654.16;5011492;28;20204;-86
2021/11/27 03:47:22;;;;;;;1.30;1.20;;;;;;;3.54;80.25;93663.41;5008916;28;20230;-85
2021/11/27 03:49:48;;;;;;;1.63;1.23;;;;;;;3.34;80.44;93669.56;5010782;28;20596;-84
2021/11/27 03:52:17;;;;;;;0.77;0.57;;;;;;;3.67;80.36;93672.03;5008816;28;20695;-85
2021/11/27 03:54:44;;;;;;;1.33;1.23;;;;;;;3.51;80.05;93668.19;5008966;28;20393;-84
2021/11/27 03:57:11;;;;;;;2.10;1.00;;;;;;;3.71;79.77;93662.81;5011518;28;20221;-86
2021/11/27 03:59:37;;;;;;;1.57;1.43;;;;;;;3.56;79.81;93658.78;5011961;28;20680;-84
2021/11/27 04:02:05;;;;;;;1.70;0.70;;;;;;;3.98;79.64;93653.25;5013147;28;20705;-85
2021/11/27 04:04:35;;;;;;;1.03;0.70;;;;;;;4.23;79.51;93647.22;5012788;28;20807;-84
2021/11/27 04:07:02;;;;;;;0.70;0.70;;;;;;;3.91;78.96;93644.63;5012527;28;20250;-85
2021/11/27 04:09:29;;;;;;;1.30;0.90;;;;;;;3.93;79.12;93653.03;5012334;28;20209;-84
2021/11/27 04:11:55;;;;;;;1.27;1.00;;;;;;;3.94;78.74;93655.44;5010819;28;20210;-83
2021/11/27 04:14:22;;;;;;;1.13;1.10;;;;;;;3.95;78.92;93656.25;5013438;28;20195;-84
2021/11/27 04:16:48;;;;;;;0.50;0.50;;;;;;;3.86;79.38;93655.63;5012098;28;20218;-84
2021/11/27 04:19:15;;;;;;;1.17;1.07;;;;;;;3.88;79.30;93645.84;5014444;28;20226;-85
2021/11/27 04:21:43;;;;;;;2.30;1.07;;;;;;;3.92;79.16;93648.81;5016684;28;20203;-85
2021/11/27 04:24:09;;;;;;;1.80;1.17;;;;;;;3.96;79.51;93656.03;5017014;28;20210;-85
2021/11/27 04:26:36;;;;;;;1.50;1.07;;;;;;;3.88;79.78;93650.22;5019627;28;20209;-84
2021/11/27 04:29:03;;;;;;;3.70;1.53;;;;;;;4.02;79.97;93644.84;5018817;28;20232;-85
2021/11/27 04:31:30;;;;;;;1.57;0.80;;;;;;;4.03;79.14;93649.03;5019915;28;20199;-85
2021/11/27 04:33:56;;;;;;;5.40;1.00;;;;;;;3.94;79.31;93654.63;5018089;28;20206;-83
2021/11/27 04:36:23;;;;;;;1.77;0.83;;;;;;;3.98;79.32;93656.63;5019073;28;20202;-86
2021/11/27 04:38:51;;;;;;;1.70;0.83;;;;;;;4.15;79.58;93652.66;5011626;28;20254;-84
2021/11/27 04:41:20;;;;;;;0.73;0.70;;;;;;;4.05;79.20;93659.25;5012608;28;20206;-86
2021/11/27 04:43:46;;;;;;;0.63;0.63;;;;;;;4.01;78.94;93651.03;5010495;28;20289;-84
2021/11/27 04:46:13;;;;;;;2.73;1.53;;;;;;;3.88;79.49;93643.22;5010866;28;20565;-85
2021/11/27 04:48:39;;;;;;;4.17;1.53;;;;;;;3.83;79.93;93643.03;5010581;28;20628;-86
2021/11/27 04:51:06;;;;;;;0.93;0.93;;;;;;;3.96;79.28;93643.03;5011912;28;20576;-84
2021/11/27 04:53:33;;;;;;;3.43;1.20;;;;;;;4.08;79.23;93636.19;5012013;28;20201;-84
2021/11/27 04:56:01;;;;;;;3.63;1.80;;;;;;;4.14;79.85;93645.84;5012977;28;20206;-87
2021/11/27 04:58:29;;;;;;;2.23;1.33;;;;;;;3.89;80.07;93642.19;5011762;28;20218;-84
2021/11/27 05:00:56;;;;;;;1.23;1.13;;;;;;;3.94;79.50;93639.81;5010942;28;20212;-84
2021/11/27 05:03:22;;;;;;;2.37;1.17;;;;;;;3.95;78.87;93640.63;5011790;28;20202;-87
2021/11/27 05:05:50;;;;;;;2.27;1.57;;;;;;;4.35;78.48;93648.22;5012066;28;20217;-86
2021/11/27 05:08:16;;;;;;;3.03;1.47;;;;;;;4.06;77.92;93650.44;5011329;28;21123;-83
2021/11/27 05:10:44;;;;;;;2.47;0.70;;;;;;;4.14;78.18;93645.00;5011803;28;20206;-85
2021/11/27 05:13:12;;;;;;;1.50;1.40;;;;;;;4.46;77.87;93645.00;5011381;28;20658;-84
2021/11/27 05:15:39;;;;;;;0.80;0.80;;;;;;;4.32;77.60;93646.03;5011775;28;20202;-84
2021/11/27 05:18:05;;;;;;;1.93;1.50;;;;;;;4.03;78.31;93640.41;5012571;28;20596;-85
2021/11/27 05:20:32;;;;;;;1.23;1.00;;;;;;;4.10;78.08;93644.63;5012618;28;20205;-84
2021/11/27 05:22:59;;;;;;;1.00;1.00;;;;;;;4.29;77.30;93638.63;5012793;28;20729;-84
2021/11/27 05:25:25;;;;;;;2.47;1.03;;;;;;;4.13;77.76;93640.81;5011845;28;20202;-84
2021/11/27 05:27:52;;;;;;;4.40;1.30;;;;;;;3.99;78.27;93647.81;5011081;28;20234;-84
2021/11/27 05:30:21;;;;;;;1.47;1.37;;;;;;;4.35;78.27;93643.81;5012189;28;20195;-83
2021/11/27 05:33:07;;;;;;;3.23;2.20;;;;;;;4.02;78.30;93652.66;5009635;28;20255;-85
2021/11/27 05:35:33;;;;;;;4.43;1.63;;;;;;;4.06;78.53;93638.22;5010909;28;20232;-84
2021/11/27 05:38:01;;;;;;;1.90;1.50;;;;;;;4.34;77.80;93641.38;5009733;28;20229;-84
2021/11/27 05:40:28;;;;;;;1.50;1.40;;;;;;;4.38;78.53;93638.19;5011482;28;20241;-86
2021/11/27 05:42:54;;;;;;;2.13;1.50;;;;;;;4.31;78.18;93633.97;5010994;28;20209;-85
2021/11/27 05:45:27;;;;;;;1.60;1.50;;;;;;;4.52;78.14;93639.78;5010999;28;20561;-86
2021/11/27 05:47:54;;;;;;;2.23;1.23;;;;;;;4.18;78.22;93641.81;5010351;28;20316;-86
2021/11/27 05:50:20;;;;;;;0.80;0.80;;;;;;;4.25;78.86;93647.81;5011388;28;20217;-85
2021/11/27 05:52:47;;;;;;;1.03;0.97;;;;;;;4.31;78.60;93636.59;5010525;28;20218;-84
2021/11/27 05:55:13;;;;;;;3.47;1.90;;;;;;;4.25;78.90;93642.59;5011582;28;20213;-86
2021/11/27 05:57:40;;;;;;;0.83;0.67;;;;;;;4.37;78.60;93641.78;5016602;28;20249;-87
2021/11/27 06:00:08;;;;;;;1.27;1.00;;;;;;;4.27;79.39;93641.41;5015184;28;20210;-85
2021/11/27 06:02:36;;;;;;;1.13;1.00;;;;;;;4.42;79.45;93636.78;5015895;28;20812;-85
2021/11/27 06:05:02;;;;;;;2.50;2.30;;;;;;;4.09;79.36;93635.22;5014505;28;20210;-85
2021/11/27 06:07:30;;;;;;;2.53;0.83;;;;;;;4.18;79.28;93643.63;5017718;28;20284;-84
2021/11/27 06:09:57;;;;;;;2.30;1.07;;;;;;;4.22;79.60;93653.44;5015976;28;20320;-85
2021/11/27 06:12:23;;;;;;;2.03;1.47;;;;;;;4.12;79.83;93657.44;5017257;28;20673;-85
2021/11/27 06:14:50;;;;;;;2.23;1.07;;;;;;;4.22;79.94;93654.22;5018329;28;20207;-84
2021/11/27 06:17:17;;;;;;;2.83;1.13;;;;;;;4.10;80.34;93656.84;5018000;28;20713;-84
2021/11/27 06:19:45;;;;;;;2.03;1.33;;;;;;;4.29;80.76;93647.22;5016498;28;20206;-84
2021/11/27 06:22:12;;;;;;;3.00;1.67;;;;;;;4.14;80.31;93658.03;5017763;28;20232;-85
2021/11/27 06:24:38;;;;;;;1.00;0.77;;;;;;;4.30;79.72;93653.22;5017478;28;20557;-84
2021/11/27 06:27:05;;;;;;;1.07;0.97;;;;;;;4.45;79.65;93653.81;5016252;28;20219;-84
2021/11/27 06:29:32;;;;;;;4.60;2.17;;;;;;;4.46;79.50;93658.81;5015174;28;20205;-84
2021/11/27 06:31:59;;;;;;;2.87;1.43;;;;;;;4.51;79.52;93658.22;5016324;28;20205;-85
2021/11/27 06:34:25;;;;;;;3.43;2.13;;;;;;;4.44;79.25;93663.47;5021014;28;20361;-86
2021/11/27 06:36:53;;;;;;;3.03;1.73;;;;;;;4.76;79.06;93680.03;5018541;28;20613;-85
2021/11/27 06:39:19;;;;;;;4.67;1.87;;;;;;;4.45;79.24;93680.69;5017625;28;20197;-84
2021/11/27 06:41:46;;;;;;;6.13;2.70;;;;;;;4.36;79.18;93687.09;5016826;28;20206;-86
2021/11/27 06:44:12;;;;;;;3.43;1.37;;;;;;;4.29;79.23;93690.75;5018269;28;20743;-86
2021/11/27 06:46:39;;;;;;;1.60;1.50;;;;;;;4.44;79.44;93704.34;5015811;28;20210;-86
2021/11/27 06:49:05;;;;;;;4.73;1.30;;;;;;;4.37;79.44;93704.34;5010876;28;20237;-85
2021/11/27 06:51:32;;;;;;;5.67;2.10;;;;;;;4.53;79.62;93709.16;5011624;28;20217;-84
2021/11/27 06:54:00;;;;;;;8.87;2.43;;;;;;;4.64;79.60;93707.75;5011451;28;20208;-84
2021/11/27 06:56:26;;;;;;;2.33;2.07;;;;;;;4.31;80.39;93709.56;5010325;28;20213;-85
2021/11/27 06:58:54;;;;;;;4.90;2.63;;;;;;;4.31;80.34;93712.16;5010524;28;20226;-86
2021/11/27 07:01:20;;;;;;;3.20;1.80;;;;;;;4.33;80.44;93713.56;5011330;28;20210;-84
2021/11/27 07:03:47;;;;;;;3.03;2.30;;;;;;;4.40;80.97;93711.78;5011302;28;20587;-85
2021/11/27 07:06:13;;;;;;;2.57;2.37;;;;;;;4.39;80.95;93711.97;5012305;28;20213;-84
2021/11/27 07:08:40;;;;;;;1.27;1.00;;;;;;;4.48;80.94;93718.56;5015210;28;20229;-85
2021/11/27 07:11:08;;;;;;;2.83;1.73;;;;;;;4.67;81.78;93720.38;5016314;28;20206;-84
2021/11/27 07:13:35;;;;;;;6.47;1.63;;;;;;;4.64;82.25;93715.56;5016583;28;20328;-85
2021/11/27 07:16:01;;;;;;;5.10;2.47;;;;;;;4.55;82.29;93711.56;5013792;28;20209;-85
2021/11/27 07:18:28;;;;;;;5.27;2.67;;;;;;;4.55;83.01;93722.00;5012436;28;20219;-84
2021/11/27 07:20:54;;;;;;;3.73;2.20;;;;;;;4.63;82.71;93724.41;5011252;28;20526;-85
2021/11/27 07:23:21;;;;;;;7.30;2.70;;;;;;;4.47;83.62;93725.59;5012425;28;20238;-84
2021/11/27 07:25:48;;;;;;;8.23;3.33;;;;;;;4.80;82.59;93725.56;5012393;28;20217;-86
2021/11/27 07:28:16;;;;;;;2.60;1.80;;;;;;;4.87;82.91;93728.00;5010835;28;20226;-83
2021/11/27 07:30:43;;;;;;;2.10;1.63;;;;;;;4.65;83.30;93717.97;5011833;28;20210;-84
2021/11/27 07:33:09;;;;;;;2.60;1.47;;;;;;;4.80;82.96;93715.97;5013341;28;20206;-85
2021/11/27 07:35:36;;;;;;;3.90;1.80;;;;;;;4.55;83.50;93714.19;5013052;28;20210;-86
2021/11/27 07:38:03;;;;;;;3.70;2.43;;;;;;;4.60;83.75;93714.38;5011187;28;20221;-86
2021/11/27 07:40:29;;;;;;;2.87;1.57;;;;;;;4.65;83.47;93723.19;5010035;28;20206;-85
2021/11/27 07:42:57;;;;;;;2.67;1.97;;;;;;;4.97;82.49;93722.34;5012702;28;20479;-84
2021/11/27 07:45:27;;;;;;;3.40;1.90;;;;;;;4.99;82.95;93730.75;5011566;28;20298;-85
2021/11/27 07:47:53;;;;;;;1.67;1.27;;;;;;;4.61;83.28;93729.81;5009723;28;20881;-85
2021/11/27 07:50:20;;;;;;;1.17;1.03;;;;;;;4.61;83.35;93727.22;5011220;28;20205;-87
2021/11/27 07:52:46;;;;;;;0.73;0.70;;;;;;;4.69;83.60;93731.44;5013814;28;21030;-86
2021/11/27 07:55:13;;;;;;;3.13;1.33;;;;;;;4.79;83.19;93726.59;5013180;28;20217;-84
2021/11/27 07:57:39;;;;;;;1.77;1.30;;;;;;;4.81;83.36;93735.00;5011923;28;20690;-86
2021/11/27 08:00:07;;;;;;;1.30;1.20;;;;;;;5.00;82.89;93724.53;5012195;28;20214;-84
2021/11/27 08:02:36;;;;;;;3.03;1.63;;;;;;;5.27;82.71;93720.84;5013429;28;20210;-85
2021/11/27 08:05:03;;;;;;;5.13;2.80;;;;;;;5.05;82.94;93733.38;5013129;28;20205;-85
2021/11/27 08:07:32;;;;;;;3.70;1.90;;;;;;;5.22;82.37;93736.31;5012661;28;20597;-85
2021/11/27 08:09:58;;;;;;;6.50;2.77;;;;;;;4.94;82.80;93748.84;5012123;28;20229;-84
2021/11/27 08:12:25;;;;;;;5.87;3.23;;;;;;;5.13;82.62;93754.03;5011950;28;20197;-84
2021/11/27 08:14:52;;;;;;;5.10;2.47;;;;;;;5.14;82.51;93765.25;5012849;28;20214;-84
2021/11/27 08:17:18;;;;;;;3.53;2.30;;;;;;;5.01;82.43;93775.72;5011928;28;20590;-85
2021/11/27 08:19:46;;;;;;;11.60;4.73;;;;;;;5.28;82.61;93772.06;5010125;28;20205;-85
2021/11/27 08:22:13;;;;;;;12.87;4.50;;;;;;;5.06;82.72;93784.53;5011603;28;20558;-85
2021/11/27 08:24:39;;;;;;;4.50;2.47;;;;;;;5.24;81.96;93794.34;5012461;28;20202;-84
2021/11/27 08:27:06;;;;;;;1.97;1.70;;;;;;;4.92;83.29;93788.16;5012280;28;20216;-85
2021/11/27 08:29:32;;;;;;;2.67;2.33;;;;;;;5.16;82.63;93784.13;5015591;28;20227;-87
2021/11/27 08:31:59;;;;;;;3.63;1.93;;;;;;;5.19;82.33;93789.72;5015415;28;20218;-86
2021/11/27 08:34:26;;;;;;;4.37;1.47;;;;;;;5.08;83.12;93785.16;5017101;28;20199;-86
2021/11/27 08:36:54;;;;;;;4.53;1.73;;;;;;;5.12;83.32;93788.97;5014445;28;20206;-86
2021/11/27 08:39:20;;;;;;;5.13;2.97;;;;;;;5.09;83.52;93794.59;5016692;28;20611;-86
2021/11/27 08:41:47;;;;;;;3.00;2.33;;;;;;;5.09;82.84;93794.59;5013772;28;20194;-85
2021/11/27 08:44:14;;;;;;;5.03;1.43;;;;;;;5.12;82.95;93788.97;5013335;28;20202;-86
2021/11/27 08:46:40;;;;;;;4.33;1.93;;;;;;;5.27;82.28;93791.31;5013137;28;20206;-86
2021/11/27 08:49:07;;;;;;;0.83;0.80;;;;;;;5.23;82.19;93800.56;5012025;28;20945;-84
2021/11/27 08:51:37;;;;;;;3.03;1.90;;;;;;;5.35;82.09;93796.34;5012216;28;20292;-86
2021/11/27 08:54:05;;;;;;;2.73;1.80;;;;;;;5.69;81.43;93796.81;5011043;28;20210;-86
2021/11/27 08:56:31;;;;;;;3.90;1.70;;;;;;;5.41;81.65;93787.69;5011915;28;20213;-85
2021/11/27 08:58:58;;;;;;;4.73;2.47;;;;;;;5.39;82.22;93790.50;5011936;28;20253;-86
2021/11/27 09:01:25;;;;;;;2.03;1.40;;;;;;;5.47;81.48;93795.50;5012025;28;20210;-85
2021/11/27 09:03:51;;;;;;;3.90;2.27;;;;;;;5.54;81.07;93793.69;5010996;28;20214;-85
2021/11/27 09:06:19;;;;;;;6.13;2.33;;;;;;;5.67;80.64;93793.63;5011472;28;20899;-85
2021/11/27 09:08:46;;;;;;;2.17;1.73;;;;;;;5.57;81.53;93790.66;5012572;28;20234;-85
2021/11/27 09:11:17;;;;;;;3.67;2.70;;;;;;;5.99;80.56;93797.97;5008892;28;20203;-85
2021/11/27 09:13:44;;;;;;;3.53;2.00;;;;;;;5.76;81.56;93803.66;5010913;28;20195;-85
2021/11/27 09:16:11;;;;;;;2.70;1.57;;;;;;;5.57;80.79;93799.28;5011335;28;20213;-85
2021/11/27 09:18:38;;;;;;;2.87;2.43;;;;;;;5.56;81.26;93808.16;5012115;28;20223;-85
2021/11/27 09:21:04;;;;;;;1.13;1.03;;;;;;;5.76;81.05;93810.72;5014235;28;20206;-85
2021/11/27 09:23:31;;;;;;;4.40;1.73;;;;;;;5.94;80.49;93806.41;5013730;28;20475;-86
2021/11/27 09:25:59;;;;;;;4.97;2.23;;;;;;;5.51;81.04;93804.53;5012804;28;20202;-87
2021/11/27 09:28:26;;;;;;;3.50;2.20;;;;;;;5.92;80.90;93816.28;5013643;28;20241;-85
2021/11/27 09:30:53;;;;;;;5.60;1.90;;;;;;;6.11;79.70;93813.59;5012988;28;20205;-86
2021/11/27 09:33:20;;;;;;;3.53;2.13;;;;;;;5.92;79.67;93818.91;5012471;28;20394;-85
2021/11/27 09:35:58;;;;;;;1.17;1.07;;;;;;;5.71;80.61;93824.34;5015336;28;20206;-85
2021/11/27 09:38:25;;;;;;;3.87;2.17;;;;;;;5.95;80.75;93825.53;5012885;28;20223;-86
2021/11/27 09:40:54;;;;;;;3.80;2.77;;;;;;;6.35;79.02;93818.09;5011248;28;20245;-87
2021/11/27 09:43:21;;;;;;;4.47;2.73;;;;;;;6.52;78.15;93816.56;5012070;28;20199;-86
2021/11/27 09:45:51;;;;;;;2.87;2.10;;;;;;;6.67;77.96;93809.22;5012424;28;20215;-85
2021/11/27 09:48:19;;;;;;;3.17;1.70;;;;;;;6.43;78.16;93828.28;5011103;28;20695;-85
2021/11/27 09:50:46;;;;;;;4.03;2.33;;;;;;;6.84;78.09;93823.41;5011791;28;20204;-86
2021/11/27 09:53:13;;;;;;;3.77;2.03;;;;;;;6.30;78.24;93819.72;5008018;28;20202;-85
2021/11/27 09:55:39;;;;;;;12.30;2.50;;;;;;;6.08;79.07;93823.63;5010566;28;20214;-84
2021/11/27 09:58:06;;;;;;;4.20;1.90;;;;;;;5.83;80.34;93821.94;5009366;28;20688;-85
2021/11/27 10:00:33;;;;;;;4.43;1.70;;;;;;;5.92;80.66;93815.47;5009738;28;20206;-84
2021/11/27 10:03:02;;;;;;;2.30;1.67;;;;;;;6.45;79.72;93821.03;5010883;28;20210;-84
2021/11/27 10:05:28;;;;;;;2.07;1.63;;;;;;;6.05;79.63;93835.31;5010215;28;20209;-84
2021/11/27 10:07:56;;;;;;;3.23;1.63;;;;;;;6.17;80.56;93827.63;5012986;28;20229;-85
2021/11/27 10:10:22;;;;;;;3.47;1.33;;;;;;;6.03;80.85;93833.13;5012548;28;20364;-85
2021/11/27 10:12:51;;;;;;;5.60;2.00;;;;;;;6.53;79.96;93836.50;5011375;28;20208;-85
2021/11/27 10:15:17;;;;;;;3.73;2.03;;;;;;;6.41;79.47;93821.66;5012790;28;20217;-85
2021/11/27 10:17:44;;;;;;;1.37;1.10;;;;;;;6.43;79.27;93814.41;5011080;28;20214;-85
2021/11/27 10:20:13;;;;;;;2.93;1.60;;;;;;;6.54;78.65;93814.53;5010469;28;20205;-84
2021/11/27 10:22:45;;;;;;;2.30;1.60;;;;;;;6.87;77.79;93808.06;5012109;28;20207;-85
2021/11/27 10:25:29;;;;;;;2.60;1.50;;;;;;;7.28;76.52;93803.88;5010793;28;20195;-84
2021/11/27 10:28:04;;;;;;;2.87;1.47;;;;;;;6.81;78.20;93815.94;5009758;28;20222;-85
2021/11/27 10:30:40;;;;;;;2.33;1.00;;;;;;;6.63;78.68;93815.88;5007730;28;20236;-84
2021/11/27 10:33:07;;;;;;;2.93;1.57;;;;;;;6.39;79.07;93832.34;5003839;28;20580;-85
2021/11/27 10:35:35;;;;;;;1.93;1.50;;;;;;;6.55;79.34;93831.84;5003722;28;20207;-86
2021/11/27 10:38:06;;;;;;;6.57;1.73;;;;;;;6.56;79.38;93830.81;5005352;28;20231;-84
2021/11/27 10:40:34;;;;;;;2.87;1.87;;;;;;;6.38;79.22;93840.41;5004565;28;20191;-85
2021/11/27 10:43:05;;;;;;;2.47;1.97;;;;;;;6.20;80.50;93838.47;5008775;28;20206;-84
2021/11/27 10:45:33;;;;;;;1.63;1.43;;;;;;;6.28;79.99;93833.00;5007837;28;20199;-86
2021/11/27 10:48:09;;;;;;;1.60;1.50;;;;;;;6.51;79.51;93830.66;5006705;28;20230;-84
2021/11/27 10:50:41;;;;;;;1.47;1.30;;;;;;;6.61;79.35;93836.22;5007610;28;20218;-84
2021/11/27 10:53:12;;;;;;;3.50;1.47;;;;;;;6.43;79.95;93833.53;5006948;28;20837;-84
2021/11/27 10:55:40;;;;;;;4.47;1.40;;;;;;;6.70;78.55;93850.66;5006422;28;20219;-85
2021/11/27 10:58:08;;;;;;;1.50;1.40;;;;;;;6.67;79.00;93845.88;5007114;28;20223;-84
2021/11/27 11:00:38;;;;;;;2.97;1.93;;;;;;;6.58;79.25;93847.13;5006604;28;20198;-85
2021/11/27 11:03:09;;;;;;;2.77;1.57;;;;;;;6.46;80.08;93855.84;5006928;28;20676;-85
2021/11/27 11:05:39;;;;;;;1.83;1.30;;;;;;;6.46;79.92;93851.41;5007147;28;20198;-85
2021/11/27 11:08:08;;;;;;;1.63;1.30;;;;;;;6.49;80.16;93852.81;5006406;28;20225;-85
2021/11/27 11:10:36;;;;;;;1.83;1.73;;;;;;;6.67;79.33;93856.31;5006840;28;20230;-86
2021/11/27 11:13:06;;;;;;;3.40;1.70;;;;;;;6.65;79.53;93855.72;5006457;28;20669;-86
2021/11/27 11:15:35;;;;;;;1.77;1.33;;;;;;;6.57;79.90;93855.16;5007008;28;20589;-85
2021/11/27 11:18:11;;;;;;;4.67;1.90;;;;;;;6.61;79.17;93856.38;5005901;28;20882;-85
2021/11/27 11:20:44;;;;;;;3.60;2.17;;;;;;;6.72;78.85;93861.69;5006624;28;20268;-86
2021/11/27 11:23:12;;;;;;;6.27;2.20;;;;;;;6.71;79.37;93857.50;5006968;28;20217;-85
2021/11/27 11:25:53;;;;;;;3.47;2.03;;;;;;;6.52;80.28;93866.28;5006585;28;20493;-85
2021/11/27 11:28:21;;;;;;;1.67;1.50;;;;;;;6.41;80.32;93861.69;5008185;28;20226;-85
2021/11/27 11:30:49;;;;;;;2.40;1.30;;;;;;;6.56;79.72;93872.69;5006522;28;20588;-85
2021/11/27 11:33:18;;;;;;;2.37;1.67;;;;;;;6.53;80.31;93875.72;5006730;28;20212;-85
2021/11/27 11:35:47;;;;;;;3.13;1.63;;;;;;;6.58;79.25;93873.28;5007166;28;20206;-84
2021/11/27 11:38:16;;;;;;;2.63;1.53;;;;;;;6.82;78.90;93864.66;5005752;28;20711;-85
2021/11/27 11:40:45;;;;;;;2.00;1.27;;;;;;;6.57;79.95;93869.06;5005220;28;20507;-86
2021/11/27 11:43:12;;;;;;;1.40;1.30;;;;;;;6.46;79.41;93864.47;5005527;28;20199;-85